createdAt,value
2017-12-22T00:00:54.796Z,7.20
2017-12-22T00:03:22.330Z,7.20
2017-12-22T00:05:50.666Z,7.20
2017-12-22T00:08:18.209Z,7.20
2017-12-22T00:10:45.751Z,7.20
2017-12-22T00:13:14.119Z,7.20
2017-12-22T00:15:46.513Z,7.20
2017-12-22T00:18:14.259Z,7.10
2017-12-22T00:20:41.795Z,7.10
2017-12-22T00:23:09.331Z,7.10
2017-12-22T00:25:37.687Z,7.10
2017-12-22T00:28:05.214Z,7.10
2017-12-22T00:30:33.512Z,7.10
2017-12-22T00:33:01.859Z,7.10
2017-12-22T00:35:29.958Z,7.10
2017-12-22T00:37:57.518Z,7.10
2017-12-22T00:40:25.570Z,7.10
2017-12-22T00:42:54.395Z,7.10
2017-12-22T00:45:25.225Z,7.10
2017-12-22T00:47:57.591Z,7.10
2017-12-22T00:50:26.606Z,7.10
2017-12-22T00:52:54.150Z,7.10
2017-12-22T00:55:21.713Z,7.10
2017-12-22T00:57:50.050Z,7.10
2017-12-22T01:00:17.587Z,7.10
2017-12-22T01:02:45.149Z,7.10
2017-12-22T01:05:13.031Z,7.10
2017-12-22T01:07:40.561Z,7.10
2017-12-22T01:10:08.104Z,7.10
2017-12-22T01:12:35.706Z,7.10
2017-12-22T01:15:03.251Z,7.10
2017-12-22T01:17:36.696Z,7.10
2017-12-22T01:20:04.223Z,7.10
2017-12-22T01:22:31.752Z,7.10
2017-12-22T01:25:00.092Z,7.10
2017-12-22T01:27:27.643Z,7.10
2017-12-22T01:29:55.211Z,7.00
2017-12-22T01:32:22.894Z,7.10
2017-12-22T01:34:50.426Z,7.10
2017-12-22T01:37:18.724Z,7.10
2017-12-22T01:39:47.066Z,7.10
2017-12-22T01:42:14.601Z,7.10
2017-12-22T01:44:42.899Z,7.10
2017-12-22T01:47:10.614Z,7.10
2017-12-22T01:49:38.142Z,7.10
2017-12-22T01:52:05.695Z,7.10
2017-12-22T01:54:33.399Z,7.10
2017-12-22T01:57:00.940Z,7.10
2017-12-22T01:59:28.479Z,7.10
2017-12-22T02:01:56.219Z,7.10
2017-12-22T02:04:23.754Z,7.10
2017-12-22T02:06:51.290Z,7.10
2017-12-22T02:09:19.021Z,7.10
2017-12-22T02:11:46.563Z,7.10
2017-12-22T02:14:14.872Z,7.10
2017-12-22T02:16:42.496Z,7.10
2017-12-22T02:19:10.037Z,7.10
2017-12-22T02:21:37.564Z,7.10
2017-12-22T02:24:05.910Z,7.10
2017-12-22T02:26:33.441Z,7.10
2017-12-22T02:29:01.007Z,7.10
2017-12-22T02:31:28.580Z,7.10
2017-12-22T02:33:56.115Z,7.10
2017-12-22T02:36:23.654Z,7.10
2017-12-22T02:38:51.431Z,7.00
2017-12-22T02:41:19.754Z,7.10
2017-12-22T02:43:47.286Z,7.00
2017-12-22T02:46:15.024Z,7.10
2017-12-22T02:48:42.570Z,7.00
2017-12-22T02:51:10.098Z,7.00
2017-12-22T02:53:37.684Z,7.10
2017-12-22T02:56:05.219Z,7.10
2017-12-22T02:58:32.760Z,7.10
2017-12-22T03:01:00.339Z,7.10
2017-12-22T03:03:28.656Z,7.10
2017-12-22T03:05:56.191Z,7.00
2017-12-22T03:08:23.778Z,7.10
2017-12-22T03:10:52.078Z,7.00
2017-12-22T03:13:19.619Z,7.00
2017-12-22T03:15:47.210Z,7.10
2017-12-22T03:18:15.542Z,7.10
2017-12-22T03:20:43.079Z,7.10
2017-12-22T03:23:10.775Z,7.10
2017-12-22T03:25:38.307Z,7.10
2017-12-22T03:28:06.604Z,7.10
2017-12-22T03:30:35.043Z,7.10
2017-12-22T03:33:02.602Z,7.10
2017-12-22T03:35:30.143Z,7.10
2017-12-22T03:37:57.780Z,7.10
2017-12-22T03:40:25.587Z,7.00
2017-12-22T03:42:53.887Z,7.10
2017-12-22T03:45:21.894Z,7.00
2017-12-22T03:47:49.424Z,7.00
2017-12-22T03:50:17.728Z,7.00
2017-12-22T03:52:45.378Z,7.00
2017-12-22T03:55:13.667Z,7.10
2017-12-22T03:57:41.972Z,7.00
2017-12-22T04:00:09.564Z,7.00
2017-12-22T04:02:37.121Z,7.00
2017-12-22T04:05:05.391Z,6.90
2017-12-22T04:07:33.728Z,6.90
2017-12-22T04:10:01.269Z,6.90
2017-12-22T04:12:28.807Z,6.90
2017-12-22T04:14:56.482Z,7.00
2017-12-22T04:17:24.093Z,7.00
2017-12-22T04:19:51.626Z,7.00
2017-12-22T04:22:20.074Z,7.00
2017-12-22T04:24:47.610Z,7.00
2017-12-22T04:27:15.913Z,7.00
2017-12-22T04:29:43.730Z,7.00
2017-12-22T04:32:11.271Z,6.90
2017-12-22T04:34:38.816Z,6.90
2017-12-22T04:37:07.340Z,6.80
2017-12-22T04:39:34.876Z,6.80
2017-12-22T04:42:03.286Z,6.80
2017-12-22T04:44:30.877Z,6.80
2017-12-22T04:46:58.410Z,6.80
2017-12-22T04:49:26.724Z,6.70
2017-12-22T04:51:54.401Z,6.70
2017-12-22T04:54:21.939Z,6.70
2017-12-22T04:56:50.269Z,6.80
2017-12-22T04:59:17.855Z,6.70
2017-12-22T05:01:45.383Z,6.80
2017-12-22T05:04:12.915Z,6.80
2017-12-22T05:06:40.494Z,6.80
2017-12-22T05:09:08.023Z,6.80
2017-12-22T05:11:35.571Z,6.80
2017-12-22T05:14:03.259Z,6.80
2017-12-22T05:16:30.791Z,6.90
2017-12-22T05:18:59.091Z,6.80
2017-12-22T05:21:27.628Z,6.90
2017-12-22T05:23:55.143Z,6.80
2017-12-22T05:26:23.443Z,6.90
2017-12-22T05:28:51.835Z,6.90
2017-12-22T05:31:19.376Z,6.90
2017-12-22T05:33:47.694Z,6.80
2017-12-22T05:36:16.219Z,6.80
2017-12-22T05:38:43.784Z,6.80
2017-12-22T05:41:11.327Z,6.80
2017-12-22T05:43:39.942Z,6.90
2017-12-22T05:46:07.499Z,6.90
2017-12-22T05:48:35.802Z,6.90
2017-12-22T05:51:03.392Z,6.90
2017-12-22T05:53:30.923Z,6.90
2017-12-22T05:55:59.248Z,6.90
2017-12-22T05:58:26.842Z,6.90
2017-12-22T06:00:54.372Z,6.90
2017-12-22T06:03:21.903Z,6.90
2017-12-22T06:05:49.639Z,7.00
2017-12-22T06:08:17.174Z,6.90
2017-12-22T06:10:45.479Z,7.00
2017-12-22T06:13:13.260Z,6.90
2017-12-22T06:15:40.787Z,7.00
2017-12-22T06:18:08.320Z,7.00
2017-12-22T06:20:36.178Z,7.00
2017-12-22T06:23:03.710Z,7.00
2017-12-22T06:25:32.011Z,7.00
2017-12-22T06:28:00.356Z,7.00
2017-12-22T06:30:27.899Z,7.00
2017-12-22T06:32:55.442Z,7.00
2017-12-22T06:35:23.287Z,7.00
2017-12-22T06:37:50.815Z,7.00
2017-12-22T06:40:18.353Z,7.00
2017-12-22T06:42:46.891Z,7.00
2017-12-22T06:45:14.423Z,7.00
2017-12-22T06:47:42.723Z,7.00
2017-12-22T06:50:11.250Z,6.90
2017-12-22T06:52:38.782Z,6.90
2017-12-22T06:55:07.194Z,6.90
2017-12-22T06:57:34.772Z,6.90
2017-12-22T07:00:02.303Z,6.90
2017-12-22T07:02:30.610Z,6.90
2017-12-22T07:04:59.111Z,6.90
2017-12-22T07:07:26.644Z,6.90
2017-12-22T07:09:55.710Z,6.80
2017-12-22T07:12:23.293Z,6.80
2017-12-22T07:14:50.835Z,6.80
2017-12-22T07:17:18.417Z,6.80
2017-12-22T07:19:46.122Z,6.80
2017-12-22T07:22:13.693Z,6.80
2017-12-22T07:24:41.216Z,6.80
2017-12-22T07:27:08.822Z,6.80
2017-12-22T07:29:36.360Z,6.80
2017-12-22T07:32:03.898Z,6.80
2017-12-22T07:34:32.247Z,6.80
2017-12-22T07:36:59.781Z,6.80
2017-12-22T07:39:27.380Z,6.80
2017-12-22T07:41:54.955Z,6.80
2017-12-22T07:44:22.491Z,6.90
2017-12-22T07:46:50.796Z,7.30
2017-12-22T07:49:18.475Z,7.30
2017-12-22T07:51:46.011Z,7.30
2017-12-22T07:54:13.723Z,7.30
2017-12-22T07:56:41.302Z,7.20
2017-12-22T07:59:08.836Z,7.10
2017-12-22T08:01:37.135Z,7.00
2017-12-22T08:04:04.707Z,7.00
2017-12-22T08:06:32.239Z,7.00
2017-12-22T08:08:59.781Z,6.90
2017-12-22T08:11:27.946Z,6.90
2017-12-22T08:13:55.483Z,6.90
2017-12-22T08:16:23.796Z,6.90
2017-12-22T08:18:51.391Z,6.90
2017-12-22T08:21:18.921Z,6.90
2017-12-22T08:23:47.224Z,6.90
2017-12-22T08:26:16.178Z,6.90
2017-12-22T08:28:44.541Z,6.90
2017-12-22T08:31:12.098Z,6.90
2017-12-22T08:33:39.692Z,6.90
2017-12-22T08:36:07.226Z,6.80
2017-12-22T08:38:35.531Z,6.80
2017-12-22T08:41:03.205Z,6.80
2017-12-22T08:43:30.735Z,6.90
2017-12-22T08:45:58.552Z,6.80
2017-12-22T08:48:26.345Z,6.80
2017-12-22T08:50:53.892Z,6.80
2017-12-22T08:53:21.419Z,6.80
2017-12-22T08:55:49.172Z,6.80
2017-12-22T08:58:16.702Z,6.80
2017-12-22T09:00:44.995Z,6.80
2017-12-22T09:03:12.675Z,6.80
2017-12-22T09:05:40.210Z,6.80
2017-12-22T09:08:07.748Z,6.70
2017-12-22T09:10:35.334Z,6.70
2017-12-22T09:13:02.876Z,6.70
2017-12-22T09:15:30.410Z,6.70
2017-12-22T09:17:58.851Z,6.80
2017-12-22T09:20:26.387Z,6.80
2017-12-22T09:22:53.915Z,6.80
2017-12-22T09:25:21.505Z,6.80
2017-12-22T09:27:49.799Z,6.80
2017-12-22T09:30:18.099Z,6.80
2017-12-22T09:32:46.627Z,6.80
2017-12-22T09:35:14.163Z,6.80
2017-12-22T09:37:42.464Z,6.80
2017-12-22T09:40:10.059Z,6.80
2017-12-22T09:42:37.645Z,6.80
2017-12-22T09:45:05.187Z,6.90
2017-12-22T09:47:32.772Z,6.90
2017-12-22T09:50:00.313Z,7.00
2017-12-22T09:52:27.847Z,7.00
2017-12-22T09:54:55.429Z,7.00
2017-12-22T09:57:22.987Z,7.00
2017-12-22T09:59:50.527Z,7.10
2017-12-22T10:02:18.233Z,7.10
2017-12-22T10:04:45.758Z,7.10
2017-12-22T10:07:13.287Z,7.10
2017-12-22T10:09:41.010Z,7.10
2017-12-22T10:12:08.544Z,7.00
2017-12-22T10:14:36.842Z,6.90
2017-12-22T10:17:04.548Z,6.90
2017-12-22T10:19:32.119Z,7.00
2017-12-22T10:21:59.669Z,7.00
2017-12-22T10:24:27.251Z,6.90
2017-12-22T10:26:54.786Z,7.00
2017-12-22T10:29:23.083Z,7.00
2017-12-22T10:31:51.472Z,7.00
2017-12-22T10:34:19.037Z,7.00
2017-12-22T10:36:47.355Z,7.00
2017-12-22T10:39:15.039Z,7.10
2017-12-22T10:41:42.592Z,7.10
2017-12-22T10:44:10.140Z,7.10
2017-12-22T10:46:37.794Z,7.10
2017-12-22T10:49:05.342Z,7.10
2017-12-22T10:51:32.895Z,7.10
2017-12-22T10:54:00.474Z,7.10
2017-12-22T10:56:28.019Z,7.20
2017-12-22T10:58:55.575Z,7.20
2017-12-22T11:01:23.175Z,7.20
2017-12-22T11:03:50.711Z,7.30
2017-12-22T11:06:19.051Z,7.30
2017-12-22T11:08:46.631Z,7.30
2017-12-22T11:11:14.165Z,7.40
2017-12-22T11:13:41.723Z,7.40
2017-12-22T11:16:10.073Z,7.40
2017-12-22T11:18:37.620Z,7.40
2017-12-22T11:21:05.159Z,7.40
2017-12-22T11:23:32.861Z,7.40
2017-12-22T11:26:00.391Z,7.40
2017-12-22T11:28:28.726Z,7.40
2017-12-22T11:30:56.496Z,7.40
2017-12-22T11:33:24.036Z,7.50
2017-12-22T11:35:52.374Z,7.70
2017-12-22T11:38:20.163Z,7.60
2017-12-22T11:43:24.487Z,7.70
2017-12-22T11:45:52.020Z,7.70
2017-12-22T11:48:20.323Z,7.70
2017-12-22T11:50:47.902Z,7.70
2017-12-22T11:53:15.430Z,7.70
2017-12-22T11:55:42.968Z,7.80
2017-12-22T11:58:10.552Z,7.70
2017-12-22T12:00:38.089Z,7.70
2017-12-22T12:03:05.627Z,7.70
2017-12-22T12:05:33.211Z,7.70
2017-12-22T12:08:02.848Z,7.60
2017-12-22T12:10:30.391Z,7.60
2017-12-22T12:12:58.740Z,7.60
2017-12-22T12:15:26.285Z,7.60
2017-12-22T12:17:53.826Z,7.60
2017-12-22T12:20:22.210Z,7.60
2017-12-22T12:22:49.747Z,7.50
2017-12-22T12:25:17.279Z,7.50
2017-12-22T12:27:45.084Z,7.60
2017-12-22T12:30:12.646Z,7.60
2017-12-22T12:32:40.191Z,7.60
2017-12-22T12:35:07.903Z,7.60
2017-12-22T12:37:35.438Z,7.60
2017-12-22T12:40:03.002Z,7.70
2017-12-22T12:42:31.356Z,7.70
2017-12-22T12:44:59.666Z,7.60
2017-12-22T12:47:27.196Z,7.60
2017-12-22T12:49:54.960Z,7.60
2017-12-22T13:16:49.972Z,7.70
2017-12-22T13:19:17.525Z,7.70
2017-12-22T13:21:45.052Z,7.70
2017-12-22T13:24:13.649Z,7.60
2017-12-22T13:26:41.191Z,7.60
2017-12-22T13:29:08.735Z,7.60
2017-12-22T13:31:36.307Z,7.70
2017-12-22T13:34:03.835Z,7.60
2017-12-22T13:36:32.136Z,7.60
2017-12-22T13:38:59.704Z,7.60
2017-12-22T13:41:27.237Z,7.60
2017-12-22T13:43:54.771Z,7.60
2017-12-22T13:46:22.430Z,7.70
2017-12-22T13:48:49.968Z,7.60
2017-12-22T13:51:18.264Z,7.60
2017-12-22T13:53:46.616Z,7.60
2017-12-22T13:56:14.143Z,7.60
2017-12-22T13:58:41.684Z,7.60
2017-12-22T14:01:10.219Z,7.60
2017-12-22T14:03:37.762Z,7.60
2017-12-22T14:06:05.307Z,7.50
2017-12-22T14:08:33.232Z,7.60
2017-12-22T14:11:00.779Z,7.60
2017-12-22T14:13:29.081Z,7.50
2017-12-22T14:15:56.679Z,7.50
2017-12-22T14:18:24.227Z,7.50
2017-12-22T14:20:51.771Z,7.50
2017-12-22T14:23:20.302Z,7.50
2017-12-22T14:25:47.842Z,7.50
2017-12-22T14:28:16.154Z,7.40
2017-12-22T14:30:43.734Z,7.50
2017-12-22T14:33:11.278Z,7.40
2017-12-22T14:35:39.579Z,7.40
2017-12-22T14:38:07.160Z,7.40
2017-12-22T14:40:34.695Z,7.40
2017-12-22T14:43:02.260Z,7.30
2017-12-22T14:45:29.832Z,7.30
2017-12-22T14:47:57.372Z,7.30
2017-12-22T14:50:24.939Z,7.30
2017-12-22T14:52:52.611Z,7.30
2017-12-22T14:55:20.376Z,7.30
2017-12-22T14:57:47.899Z,7.20
2017-12-22T15:00:16.443Z,7.10
2017-12-22T15:02:43.971Z,7.10
2017-12-22T15:05:12.288Z,7.10
2017-12-22T15:07:39.964Z,7.10
2017-12-22T15:10:07.494Z,7.00
2017-12-22T15:12:35.060Z,7.00
2017-12-22T15:15:03.612Z,7.00
2017-12-22T15:17:31.174Z,7.00
2017-12-22T15:19:58.725Z,7.00
2017-12-22T15:22:27.078Z,6.90
2017-12-22T15:24:54.630Z,6.90
2017-12-22T15:27:22.174Z,6.90
2017-12-22T15:29:50.471Z,6.80
2017-12-22T15:32:18.000Z,6.70
2017-12-22T15:34:46.301Z,6.70
2017-12-22T15:37:13.879Z,6.60
2017-12-22T15:39:41.454Z,6.70
2017-12-22T15:42:11.862Z,6.60
2017-12-22T15:44:40.357Z,6.50
2017-12-22T15:47:08.204Z,6.40
2017-12-22T15:49:35.740Z,6.40
2017-12-22T15:52:03.454Z,6.40
2017-12-22T15:54:31.695Z,6.30
2017-12-22T15:56:59.271Z,6.20
2017-12-22T15:59:26.908Z,6.10
2017-12-22T16:01:55.214Z,6.00
2017-12-22T16:04:23.576Z,5.90
2017-12-22T16:06:51.863Z,5.90
2017-12-22T16:09:22.149Z,5.90
2017-12-22T16:11:49.720Z,5.80
2017-12-22T16:14:17.307Z,5.80
2017-12-22T16:16:44.886Z,5.80
2017-12-22T16:19:13.791Z,5.70
2017-12-22T16:21:43.371Z,5.70
2017-12-22T16:24:11.686Z,5.80
2017-12-22T16:26:39.240Z,5.70
2017-12-22T16:29:06.988Z,5.70
2017-12-22T16:31:34.519Z,5.80
2017-12-22T16:34:02.067Z,5.80
2017-12-22T16:36:29.680Z,5.80
2017-12-22T16:38:57.253Z,5.80
2017-12-22T16:41:24.791Z,5.80
2017-12-22T16:43:52.583Z,5.80
2017-12-22T16:46:20.121Z,5.80
2017-12-22T16:48:47.726Z,5.70
2017-12-22T16:51:15.324Z,5.70
2017-12-22T16:53:43.986Z,5.70
2017-12-22T16:56:13.064Z,5.70
2017-12-22T16:58:40.739Z,5.70
2017-12-22T17:01:08.267Z,5.70
2017-12-22T17:03:35.814Z,5.80
2017-12-22T17:06:05.308Z,5.80
2017-12-22T17:08:32.863Z,5.70
2017-12-22T17:11:00.429Z,5.70
2017-12-22T17:13:28.894Z,5.70
2017-12-22T17:15:58.123Z,5.70
2017-12-22T17:18:26.432Z,5.70
2017-12-22T17:20:54.148Z,5.60
2017-12-22T17:23:21.763Z,5.60
2017-12-22T17:25:51.055Z,5.60
2017-12-22T17:28:19.406Z,5.60
2017-12-22T17:30:46.945Z,5.60
2017-12-22T17:33:14.475Z,5.60
2017-12-22T17:35:42.071Z,5.50
2017-12-22T17:38:10.423Z,5.50
2017-12-22T17:40:38.024Z,5.50
2017-12-22T17:43:06.467Z,5.50
2017-12-22T17:45:34.027Z,5.50
2017-12-22T17:48:01.567Z,5.50
2017-12-22T17:50:30.190Z,5.50
2017-12-22T17:52:57.778Z,5.50
2017-12-22T17:55:25.746Z,5.50
2017-12-22T17:57:53.387Z,5.50
2017-12-22T18:00:21.687Z,5.50
2017-12-22T18:02:50.299Z,5.50
2017-12-22T18:05:18.177Z,5.40
2017-12-22T18:07:45.792Z,5.50
2017-12-22T18:10:13.326Z,5.40
2017-12-22T18:12:40.935Z,5.40
2017-12-22T18:15:08.471Z,5.40
2017-12-22T18:17:36.014Z,5.30
2017-12-22T18:20:04.360Z,5.40
2017-12-22T18:22:31.903Z,5.30
2017-12-22T18:24:59.446Z,5.40
2017-12-22T18:27:27.984Z,5.50
2017-12-22T18:29:55.523Z,5.50
2017-12-22T18:32:23.170Z,5.60
2017-12-22T18:34:51.969Z,5.70
2017-12-22T18:37:19.547Z,5.60
2017-12-22T18:39:47.091Z,5.70
2017-12-22T18:42:14.824Z,5.80
2017-12-22T18:44:42.388Z,5.80
2017-12-22T18:47:10.112Z,5.80
2017-12-22T18:49:37.860Z,5.80
2017-12-22T18:52:05.395Z,5.80
2017-12-22T18:54:33.702Z,5.80
2017-12-22T18:57:01.622Z,5.80
2017-12-22T18:59:29.298Z,5.80
2017-12-22T19:01:57.691Z,5.70
2017-12-22T19:04:26.476Z,5.70
2017-12-22T19:06:54.073Z,5.70
2017-12-22T19:09:21.735Z,5.70
2017-12-22T19:11:49.327Z,5.80
2017-12-22T19:14:17.918Z,5.80
2017-12-22T19:16:45.651Z,5.80
2017-12-22T19:19:13.236Z,5.80
2017-12-22T19:21:41.187Z,5.80
2017-12-22T19:24:08.741Z,5.80
2017-12-22T19:26:36.547Z,5.80
2017-12-22T19:29:04.139Z,5.70
2017-12-22T19:31:32.736Z,5.60
2017-12-22T19:34:00.396Z,5.60
2017-12-22T19:36:27.970Z,5.50
2017-12-22T19:38:55.623Z,5.50
2017-12-22T19:41:23.245Z,5.50
2017-12-22T19:43:50.776Z,5.50
2017-12-22T19:46:18.385Z,5.50
2017-12-22T19:48:46.239Z,5.50
2017-12-22T19:51:13.906Z,5.50
2017-12-22T19:53:41.516Z,5.50
2017-12-22T19:56:10.511Z,5.40
2017-12-22T19:58:38.062Z,5.40
2017-12-22T20:01:06.116Z,5.40
2017-12-22T20:03:34.060Z,5.40
2017-12-22T20:06:01.625Z,5.40
2017-12-22T20:08:29.165Z,5.50
2017-12-22T20:10:57.144Z,5.50
2017-12-22T20:13:24.858Z,5.50
2017-12-22T20:15:52.483Z,5.50
2017-12-22T20:18:20.413Z,5.50
2017-12-22T20:20:48.020Z,5.40
2017-12-22T20:23:15.605Z,5.40
2017-12-22T20:25:43.572Z,5.40
2017-12-22T20:28:11.146Z,5.40
2017-12-22T20:30:38.759Z,5.30
2017-12-22T20:33:06.345Z,5.30
2017-12-22T20:35:33.887Z,5.30
2017-12-22T20:38:01.608Z,5.30
2017-12-22T20:40:30.091Z,5.30
2017-12-22T20:42:57.695Z,5.30
2017-12-22T20:45:25.249Z,5.30
2017-12-22T20:47:54.318Z,5.30
2017-12-22T20:50:23.119Z,5.20
2017-12-22T20:52:53.219Z,5.20
2017-12-22T20:55:21.846Z,5.10
2017-12-22T20:57:49.435Z,5.10
2017-12-22T21:00:17.367Z,5.10
2017-12-22T21:02:47.935Z,5.10
2017-12-22T21:05:16.984Z,5.10
2017-12-22T21:07:46.248Z,5.40
2017-12-22T21:10:13.828Z,5.40
2017-12-22T21:12:41.371Z,5.50
2017-12-22T21:15:08.971Z,5.60
2017-12-22T21:17:36.523Z,5.70
2017-12-22T21:20:04.078Z,5.80
2017-12-22T21:22:31.707Z,5.90
2017-12-22T21:25:00.020Z,6.20
2017-12-22T21:27:29.588Z,6.20
2017-12-22T21:30:01.140Z,6.30
2017-12-22T21:32:28.666Z,6.20
2017-12-22T21:34:56.971Z,6.20
2017-12-22T21:37:24.572Z,6.20
2017-12-22T21:39:52.116Z,6.20
2017-12-22T21:42:19.659Z,6.20
2017-12-22T21:44:48.208Z,6.10
2017-12-22T21:47:15.764Z,6.10
2017-12-22T21:49:47.869Z,6.10
2017-12-22T21:52:16.372Z,6.10
2017-12-22T21:54:43.911Z,6.10
2017-12-22T21:57:11.538Z,6.10
2017-12-22T21:59:39.887Z,6.10
2017-12-22T22:02:07.422Z,6.10
2017-12-22T22:04:35.068Z,6.10
2017-12-22T22:07:02.665Z,6.10
2017-12-22T22:09:30.963Z,6.10
2017-12-22T22:11:58.515Z,6.10
2017-12-22T22:14:26.365Z,6.10
2017-12-22T22:16:53.944Z,6.10
2017-12-22T22:19:22.986Z,6.10
2017-12-22T22:21:50.575Z,6.10
2017-12-22T22:24:18.106Z,6.10
2017-12-22T22:26:46.425Z,6.10
2017-12-22T22:29:14.215Z,6.10
2017-12-22T22:31:41.760Z,6.10
2017-12-22T22:34:09.327Z,6.10
2017-12-22T22:36:37.069Z,6.10
2017-12-22T22:39:04.626Z,6.10
2017-12-22T22:41:32.166Z,6.10
2017-12-22T22:43:59.987Z,6.10
2017-12-22T22:46:27.523Z,6.10
2017-12-22T22:48:55.051Z,6.10
2017-12-22T22:51:23.395Z,6.10
2017-12-22T22:53:50.927Z,6.10
2017-12-22T22:56:18.459Z,6.10
2017-12-22T22:58:46.043Z,6.10
2017-12-22T23:01:13.589Z,6.10
2017-12-22T23:03:41.134Z,6.00
2017-12-22T23:06:08.715Z,6.00
2017-12-22T23:08:36.257Z,6.00
2017-12-22T23:11:03.838Z,5.90
2017-12-22T23:13:31.449Z,5.90
2017-12-22T23:15:58.987Z,5.90
2017-12-22T23:18:26.525Z,5.90
2017-12-22T23:20:54.873Z,5.90
2017-12-22T23:23:22.410Z,5.90
2017-12-22T23:25:49.939Z,5.90
2017-12-22T23:28:18.819Z,5.90
2017-12-22T23:30:46.360Z,5.90
2017-12-22T23:33:13.938Z,5.90
2017-12-22T23:35:41.732Z,5.90
2017-12-22T23:38:09.263Z,5.90
2017-12-22T23:40:36.804Z,5.90
2017-12-22T23:43:05.351Z,5.90
2017-12-22T23:45:32.923Z,5.90
2017-12-22T23:48:00.462Z,5.90
2017-12-22T23:50:28.804Z,5.90
2017-12-22T23:52:56.344Z,5.80
2017-12-22T23:55:23.892Z,5.80
2017-12-22T23:57:51.718Z,5.80
